| time (UTC) | temp C | wind direction | speed KPH | gust KPH | rain 1hr cm | rain 24hr cm | rain mn cm | humidity % | barometer mb |
| 20260508145442 | 18 | 162 | 0.0 | 3.2 | 0.00 | 0.03 | 0.03 | 55 | 1022.4 |
| 20260508144939 | 18 | 105 | 1.6 | 3.2 | 0.00 | 0.03 | 0.03 | 61 | 1022.3 |
| 20260508144437 | 18 | 54 | 6.4 | 8.0 | 0.00 | 0.03 | 0.03 | 57 | 1022.2 |
| 20260508143934 | 19 | 209 | 4.8 | 8.0 | 0.00 | 0.03 | 0.03 | 56 | 1022.4 |
| 20260508143432 | 20 | 227 | 1.6 | 3.2 | 0.00 | 0.03 | 0.03 | 57 | 1022.5 |
| 20260508142927 | 18 | 142 | 1.6 | 1.6 | 0.00 | 0.03 | 0.03 | 59 | 1022.5 |
| 20260508142425 | 18 | 291 | 1.6 | 3.2 | 0.00 | 0.03 | 0.03 | 59 | 1022.4 |
| 20260508141921 | 18 | 183 | 4.8 | 8.0 | 0.00 | 0.03 | 0.03 | 62 | 1022.4 |
| 20260508141418 | 17 | 219 | 3.2 | 4.8 | 0.00 | 0.03 | 0.03 | 69 | 1022.4 |
| 20260508140916 | 17 | 83 | 1.6 | 1.6 | 0.00 | 0.03 | 0.03 | 69 | 1022.2 |
| 20260508140412 | 17 | 67 | 3.2 | 3.2 | 0.00 | 0.03 | 0.03 | 64 | 1022.6 |
| 20260508135908 | 18 | 156 | 1.6 | 3.2 | 0.00 | 0.03 | 0.03 | 68 | 1022.5 |
| 20260508135405 | 17 | 110 | 1.6 | 4.8 | 0.00 | 0.03 | 0.03 | 72 | 1022.4 |
| 20260508134901 | 17 | 179 | 1.6 | 3.2 | 0.00 | 0.03 | 0.03 | 66 | 1022.3 |
| 20260508134358 | 17 | 147 | 0.0 | 3.2 | 0.00 | 0.03 | 0.03 | 72 | 1022.2 |
| 20260508133854 | 17 | 123 | 1.6 | 3.2 | 0.00 | 0.03 | 0.03 | 68 | 1022.4 |
| 20260508133352 | 17 | 191 | 4.8 | 4.8 | 0.00 | 0.03 | 0.03 | 75 | 1022.3 |
| 20260508132849 | 17 | 164 | 1.6 | 3.2 | 0.00 | 0.03 | 0.03 | 75 | 1022.4 |
| 20260508132347 | 16 | 146 | 0.0 | 3.2 | 0.00 | 0.03 | 0.03 | 79 | 1022.4 |
| 20260508131843 | 15 | 190 | 1.6 | 3.2 | 0.00 | 0.03 | 0.03 | 84 | 1022.4 |
| 20260508131339 | 14 | 146 | 0.0 | 1.6 | 0.00 | 0.03 | 0.03 | 95 | 1022.1 |
| 20260508130836 | 13 | 132 | 0.0 | 3.2 | 0.00 | 0.03 | 0.03 | 99 | 1022.2 |
| 20260508130333 | 13 | 167 | 0.0 | 1.6 | 0.00 | 0.03 | 0.03 | 99 | 1022.1 |
| 20260508125829 | 12 | 147 | 0.0 | 4.8 | 0.00 | 0.03 | 0.03 | 99 | 1022.0 |
| 20260508125325 | 13 | 155 | 0.0 | 1.6 | 0.00 | 0.03 | 0.03 | 99 | 1022.1 |
| 20260508124823 | 13 | 168 | 0.0 | 0.0 | 0.00 | 0.03 | 0.03 | 99 | 1021.8 |
| 20260508124320 | 13 | 169 | 0.0 | 0.0 | 0.00 | 0.03 | 0.03 | 99 | 1021.9 |
| 20260508123818 | 12 | 164 | 0.0 | 1.6 | 0.00 | 0.03 | 0.03 | 99 | 1021.8 |
| 20260508123316 | 13 | 164 | 0.0 | 1.6 | 0.00 | 0.03 | 0.03 | 99 | 1021.6 |
| 20260508122812 | 12 | 163 | 0.0 | 1.6 | 0.00 | 0.03 | 0.03 | 99 | 1021.5 |
| 20260508122309 | 12 | 160 | 0.0 | 0.0 | 0.00 | 0.03 | 0.03 | 99 | 1021.7 |
| 20260508121807 | 12 | 158 | 0.0 | 0.0 | 0.00 | 0.03 | 0.03 | 99 | 1021.7 |
| 20260508121305 | 12 | 155 | 0.0 | 0.0 | 0.00 | 0.03 | 0.03 | 99 | 1021.6 |
| 20260508120802 | 12 | 153 | 0.0 | 0.0 | 0.00 | 0.03 | 0.03 | 99 | 1021.5 |
| 20260508120300 | 12 | 151 | 0.0 | 0.0 | 0.00 | 0.03 | 0.03 | 99 | 1021.5 |
| 20260508115757 | 11 | 153 | 0.0 | 0.0 | 0.00 | 0.03 | 0.03 | 99 | 1021.6 |
| 20260508115254 | 11 | 155 | 0.0 | 0.0 | 0.00 | 0.03 | 0.03 | 99 | 1021.5 |
| 20260508114751 | 11 | 152 | 0.0 | 0.0 | 0.00 | 0.03 | 0.03 | 99 | 1021.6 |
| 20260508114248 | 11 | 153 | 0.0 | 0.0 | 0.00 | 0.03 | 0.03 | 99 | 1021.4 |
| 20260508113744 | 10 | 151 | 0.0 | 0.0 | 0.00 | 0.03 | 0.03 | 99 | 1021.3 |
| 20260508113243 | 8 | 153 | 0.0 | 0.0 | 0.13 | 0.03 | 0.03 | 99 | 1021.1 |
| 20260508112739 | 8 | 156 | 0.0 | 0.0 | 0.13 | 0.03 | 0.03 | 99 | 1021.2 |
| 20260508112236 | 8 | 156 | 0.0 | 0.0 | 0.00 | 0.00 | 0.00 | 99 | 1020.8 |
| 20260508111732 | 8 | 146 | 0.0 | 0.0 | 0.00 | 0.00 | 0.00 | 99 | 1020.8 |
| 20260508111230 | 8 | 148 | 0.0 | 0.0 | 0.00 | 0.00 | 0.00 | 99 | 1020.7 |
| 20260508110726 | 8 | 151 | 0.0 | 0.0 | 0.00 | 0.00 | 0.00 | 99 | 1020.9 |
| 20260508110223 | 8 | 137 | 0.0 | 0.0 | 0.00 | 0.00 | 0.00 | 99 | 1020.4 |
| 20260508105718 | 8 | 120 | 0.0 | 1.6 | 0.00 | 0.00 | 0.00 | 99 | 1020.6 |
| 20260508105215 | 8 | 151 | 0.0 | 0.0 | 0.00 | 0.00 | 0.00 | 99 | 1020.8 |
| 20260508104713 | 8 | 139 | 0.0 | 0.0 | 0.00 | 0.00 | 0.00 | 99 | 1020.5 |
| 20260508104209 | 8 | 135 | 0.0 | 0.0 | 0.00 | 0.00 | 0.00 | 99 | 1020.3 |
| 20260508103707 | 8 | 150 | 0.0 | 0.0 | 0.00 | 0.00 | 0.00 | 99 | 1020.2 |
| 20260508103204 | 8 | 158 | 0.0 | 0.0 | 0.00 | 0.00 | 0.00 | 99 | 1020.1 |
| 20260508102701 | 8 | 154 | 0.0 | 0.0 | 0.00 | 0.00 | 0.00 | 99 | 1020.0 |
| 20260508102159 | 9 | 159 | 0.0 | 0.0 | 0.00 | 0.00 | 0.00 | 99 | 1019.9 |
| 20260508101656 | 8 | 158 | 0.0 | 0.0 | 0.00 | 0.00 | 0.00 | 99 | 1019.9 |
| 20260508101154 | 8 | 155 | 0.0 | 0.0 | 0.00 | 0.00 | 0.00 | 99 | 1019.7 |
| 20260508100651 | 8 | 152 | 0.0 | 0.0 | 0.00 | 0.00 | 0.00 | 99 | 1019.6 |
| 20260508100149 | 8 | 151 | 0.0 | 0.0 | 0.00 | 0.00 | 0.00 | 99 | 1019.6 |
| 20260508095645 | 8 | 147 | 0.0 | 0.0 | 0.00 | 0.00 | 0.00 | 99 | 1019.7 |
| 20260508095142 | 9 | 158 | 0.0 | 0.0 | 0.00 | 0.00 | 0.00 | 99 | 1019.6 |
| 20260508094639 | 9 | 159 | 0.0 | 0.0 | 0.00 | 0.00 | 0.00 | 99 | 1019.7 |
| 20260508094135 | 10 | 158 | 0.0 | 0.0 | 0.00 | 0.00 | 0.00 | 99 | 1019.4 |
| 20260508093633 | 9 | 156 | 0.0 | 0.0 | 0.00 | 0.00 | 0.00 | 99 | 1019.6 |
| 20260508093130 | 10 | 153 | 0.0 | 0.0 | 0.00 | 0.00 | 0.00 | 99 | 1019.2 |
| 20260508092628 | 10 | 152 | 0.0 | 0.0 | 0.00 | 0.00 | 0.00 | 99 | 1019.5 |
| 20260508092126 | 10 | 140 | 0.0 | 0.0 | 0.00 | 0.00 | 0.00 | 99 | 1019.3 |
| 20260508091623 | 10 | 163 | 0.0 | 0.0 | 0.00 | 0.00 | 0.00 | 99 | 1019.3 |
| 20260508091120 | 10 | 161 | 0.0 | 0.0 | 0.00 | 0.00 | 0.00 | 99 | 1019.2 |
| 20260508090618 | 10 | 161 | 0.0 | 0.0 | 0.00 | 0.00 | 0.00 | 99 | 1019.2 |
| 20260508090115 | 10 | 153 | 0.0 | 0.0 | 0.00 | 0.00 | 0.00 | 99 | 1019.2 |
| 20260508085611 | 10 | 157 | 0.0 | 0.0 | 0.00 | 0.00 | 0.00 | 99 | 1019.2 |
| 20260508085108 | 10 | 162 | 0.0 | 0.0 | 0.00 | 0.00 | 0.00 | 99 | 1019.0 |
| 20260508084605 | 10 | 168 | 0.0 | 0.0 | 0.00 | 0.00 | 0.00 | 99 | 1019.1 |
| 20260508084102 | 10 | 149 | 0.0 | 0.0 | 0.00 | 0.00 | 0.00 | 99 | 1018.9 |
| 20260508083559 | 10 | 141 | 0.0 | 0.0 | 0.00 | 0.00 | 0.00 | 99 | 1019.0 |
| 20260508083056 | 10 | 145 | 0.0 | 0.0 | 0.00 | 0.00 | 0.00 | 99 | 1019.1 |
| 20260508082552 | 10 | 144 | 0.0 | 0.0 | 0.00 | 0.00 | 0.00 | 99 | 1018.7 |
| 20260508082049 | 10 | 150 | 0.0 | 0.0 | 0.00 | 0.00 | 0.00 | 99 | 1019.0 |
| 20260508081547 | 10 | 146 | 0.0 | 0.0 | 0.00 | 0.00 | 0.00 | 99 | 1018.9 |
| 20260508081042 | 10 | 149 | 0.0 | 0.0 | 0.00 | 0.00 | 0.00 | 99 | 1018.8 |
| 20260508080541 | 10 | 151 | 0.0 | 0.0 | 0.00 | 0.00 | 0.00 | 99 | 1018.9 |
| 20260508080038 | 10 | 152 | 0.0 | 0.0 | 0.00 | 0.00 | 0.00 | 99 | 1018.8 |
| 20260508075534 | 10 | 141 | 0.0 | 1.6 | 0.00 | 0.00 | 0.00 | 99 | 1018.7 |
| 20260508075032 | 10 | 131 | 0.0 | 0.0 | 0.00 | 0.00 | 0.00 | 99 | 1018.6 |
| 20260508074529 | 10 | 144 | 0.0 | 0.0 | 0.00 | 0.00 | 0.00 | 99 | 1018.4 |
| 20260508074026 | 10 | 144 | 0.0 | 0.0 | 0.00 | 0.00 | 0.00 | 99 | 1018.5 |
| 20260508073523 | 10 | 140 | 0.0 | 0.0 | 0.00 | 0.00 | 0.00 | 99 | 1018.8 |
| 20260508073021 | 10 | 138 | 0.0 | 0.0 | 0.00 | 0.00 | 0.00 | 99 | 1018.5 |
| 20260508072516 | 10 | 128 | 0.0 | 0.0 | 0.00 | 0.00 | 0.00 | 99 | 1018.7 |
| 20260508072014 | 10 | 145 | 0.0 | 0.0 | 0.00 | 0.00 | 0.00 | 99 | 1018.5 |
| 20260508071512 | 10 | 125 | 0.0 | 0.0 | 0.00 | 0.00 | 0.00 | 99 | 1018.5 |
| 20260508071009 | 11 | 139 | 0.0 | 1.6 | 0.00 | 0.00 | 0.00 | 99 | 1018.3 |
| 20260508070506 | 11 | 153 | 0.0 | 1.6 | 0.00 | 0.00 | 0.00 | 99 | 1018.4 |
| 20260508070005 | 11 | 144 | 0.0 | 0.0 | 0.00 | 0.00 | 0.00 | 99 | 1018.3 |
| 20260508065502 | 11 | 157 | 0.0 | 0.0 | 0.00 | 0.00 | 0.00 | 99 | 1018.3 |
| 20260508065000 | 11 | 157 | 0.0 | 0.0 | 0.00 | 0.00 | 0.00 | 99 | 1018.4 |
| 20260508064457 | 11 | 153 | 0.0 | 0.0 | 0.00 | 0.00 | 0.00 | 99 | 1018.4 |
| 20260508063955 | 11 | 155 | 0.0 | 0.0 | 0.00 | 0.00 | 0.00 | 99 | 1018.3 |
| 20260508063452 | 11 | 153 | 0.0 | 0.0 | 0.00 | 0.00 | 0.00 | 99 | 1018.2 |
| 20260508062950 | 11 | 159 | 0.0 | 0.0 | 0.00 | 0.00 | 0.00 | 99 | 1018.3 |
| 20260508062447 | 11 | 158 | 0.0 | 0.0 | 0.00 | 0.00 | 0.00 | 99 | 1018.4 |
| 20260508061944 | 11 | 152 | 0.0 | 0.0 | 0.00 | 0.00 | 0.00 | 99 | 1018.2 |
| 20260508061442 | 11 | 149 | 0.0 | 0.0 | 0.00 | 0.00 | 0.00 | 99 | 1018.3 |
| 20260508060938 | 11 | 159 | 0.0 | 0.0 | 0.00 | 0.00 | 0.00 | 99 | 1018.4 |
| 20260508060436 | 11 | 156 | 0.0 | 0.0 | 0.00 | 0.00 | 0.00 | 99 | 1018.5 |
| 20260508055931 | 11 | 155 | 0.0 | 0.0 | 0.00 | 0.00 | 0.00 | 99 | 1018.3 |
| 20260508055428 | 11 | 144 | 0.0 | 0.0 | 0.00 | 0.00 | 0.00 | 99 | 1018.5 |
| 20260508054924 | 11 | 159 | 0.0 | 0.0 | 0.00 | 0.00 | 0.00 | 99 | 1018.4 |
| 20260508054422 | 11 | 160 | 0.0 | 0.0 | 0.00 | 0.00 | 0.00 | 99 | 1018.4 |
| 20260508053919 | 11 | 160 | 0.0 | 0.0 | 0.00 | 0.00 | 0.00 | 99 | 1018.5 |
| 20260508053416 | 11 | 152 | 0.0 | 0.0 | 0.00 | 0.00 | 0.00 | 99 | 1018.3 |
| 20260508052914 | 11 | 151 | 0.0 | 0.0 | 0.00 | 0.00 | 0.00 | 99 | 1018.2 |
| 20260508052411 | 11 | 169 | 0.0 | 0.0 | 0.00 | 0.00 | 0.00 | 99 | 1018.3 |
| 20260508051907 | 11 | 154 | 0.0 | 0.0 | 0.00 | 0.00 | 0.00 | 99 | 1018.2 |
| 20260508051403 | 12 | 155 | 0.0 | 0.0 | 0.00 | 0.00 | 0.00 | 99 | 1018.7 |
| 20260508050859 | 12 | 158 | 0.0 | 0.0 | 0.00 | 0.00 | 0.00 | 99 | 1018.3 |
| 20260508050356 | 12 | 149 | 0.0 | 0.0 | 0.00 | 0.00 | 0.00 | 99 | 1017.9 |
| 20260508045852 | 12 | 156 | 0.0 | 0.0 | 0.00 | 0.00 | 0.00 | 99 | 1017.9 |
| 20260508045350 | 12 | 160 | 0.0 | 0.0 | 0.00 | 0.00 | 0.00 | 99 | 1017.7 |
| 20260508044847 | 12 | 162 | 0.0 | 0.0 | 0.00 | 0.00 | 0.00 | 99 | 1018.2 |
| 20260508044343 | 12 | 162 | 0.0 | 0.0 | 0.00 | 0.00 | 0.00 | 99 | 1018.2 |
| 20260508043839 | 12 | 159 | 0.0 | 0.0 | 0.00 | 0.00 | 0.00 | 99 | 1017.9 |
| 20260508043337 | 12 | 157 | 0.0 | 0.0 | 0.00 | 0.00 | 0.00 | 99 | 1017.9 |
| 20260508042833 | 12 | 146 | 0.0 | 0.0 | 0.00 | 0.00 | 0.00 | 99 | 1018.0 |
| 20260508042331 | 12 | 162 | 0.0 | 0.0 | 0.00 | 0.00 | 0.00 | 99 | 1018.0 |
| 20260508041828 | 12 | 162 | 0.0 | 0.0 | 0.00 | 0.00 | 0.00 | 99 | 1017.6 |
| 20260508041324 | 12 | 162 | 0.0 | 0.0 | 0.00 | 0.00 | 0.00 | 99 | 1017.7 |
| 20260508040821 | 12 | 160 | 0.0 | 0.0 | 0.00 | 0.00 | 0.00 | 99 | 1017.8 |
| 20260508040318 | 12 | 151 | 0.0 | 0.0 | 0.00 | 0.00 | 0.00 | 99 | 1017.8 |
| 20260508035815 | 12 | 157 | 0.0 | 0.0 | 0.00 | 3.17 | 3.17 | 99 | 1017.8 |
| 20260508035313 | 12 | 153 | 0.0 | 0.0 | 0.00 | 3.17 | 3.17 | 99 | 1017.9 |
| 20260508034809 | 12 | 166 | 0.0 | 0.0 | 0.00 | 3.17 | 3.17 | 99 | 1017.9 |
| 20260508034307 | 12 | 155 | 0.0 | 0.0 | 0.00 | 3.17 | 3.17 | 99 | 1017.6 |
| 20260508033803 | 13 | 141 | 0.0 | 0.0 | 0.00 | 3.17 | 3.17 | 99 | 1017.6 |
| 20260508033302 | 13 | 162 | 0.0 | 0.0 | 0.00 | 3.17 | 3.17 | 99 | 1017.6 |
| 20260508032759 | 13 | 161 | 0.0 | 0.0 | 0.00 | 3.17 | 3.17 | 99 | 1017.5 |
| 20260508032256 | 13 | 160 | 0.0 | 0.0 | 0.00 | 3.17 | 3.17 | 99 | 1017.6 |
| 20260508031753 | 13 | 164 | 0.0 | 0.0 | 0.00 | 3.17 | 3.17 | 99 | 1017.6 |
| 20260508031249 | 13 | 162 | 0.0 | 0.0 | 0.00 | 3.17 | 3.17 | 99 | 1017.7 |
| 20260508030746 | 13 | 159 | 0.0 | 0.0 | 0.00 | 3.17 | 3.17 | 99 | 1017.6 |
| 20260508030243 | 13 | 158 | 0.0 | 0.0 | 0.00 | 3.17 | 3.17 | 99 | 1017.6 |
| 20260508025739 | 13 | 165 | 0.0 | 0.0 | 0.00 | 3.17 | 3.17 | 99 | 1017.6 |
| 20260508025236 | 13 | 164 | 0.0 | 0.0 | 0.00 | 3.17 | 3.17 | 99 | 1017.4 |
| 20260508024732 | 13 | 176 | 1.6 | 1.6 | 0.00 | 3.17 | 3.17 | 99 | 1017.4 |
| 20260508024230 | 13 | 165 | 0.0 | 0.0 | 0.00 | 3.17 | 3.17 | 99 | 1017.3 |
| 20260508023726 | 13 | 164 | 0.0 | 0.0 | 0.00 | 3.17 | 3.17 | 99 | 1017.2 |
| 20260508023224 | 13 | 161 | 0.0 | 0.0 | 0.00 | 3.17 | 3.17 | 99 | 1017.4 |
| 20260508022719 | 13 | 160 | 0.0 | 0.0 | 0.00 | 3.17 | 3.17 | 99 | 1017.1 |
| 20260508022216 | 13 | 154 | 0.0 | 0.0 | 0.00 | 3.17 | 3.17 | 99 | 1017.2 |
| 20260508021713 | 13 | 154 | 0.0 | 0.0 | 0.00 | 3.17 | 3.17 | 99 | 1017.3 |
| 20260508021208 | 13 | 153 | 0.0 | 0.0 | 0.00 | 3.17 | 3.17 | 99 | 1017.0 |
| 20260508020706 | 13 | 164 | 0.0 | 1.6 | 0.00 | 3.17 | 3.17 | 99 | 1016.9 |
| 20260508020203 | 13 | 119 | 0.0 | 1.6 | 0.00 | 3.17 | 3.17 | 99 | 1016.9 |
| 20260508015701 | 14 | 120 | 0.0 | 0.0 | 0.00 | 3.17 | 3.17 | 99 | 1016.9 |
| 20260508015157 | 14 | 144 | 0.0 | 1.6 | 0.00 | 3.17 | 3.17 | 99 | 1016.9 |
| 20260508014654 | 14 | 71 | 1.6 | 3.2 | 0.00 | 3.17 | 3.17 | 99 | 1016.5 |
| 20260508014150 | 14 | 141 | 1.6 | 1.6 | 0.00 | 3.17 | 3.17 | 99 | 1016.6 |
| 20260508013647 | 14 | 358 | 1.6 | 3.2 | 0.00 | 3.17 | 3.17 | 99 | 1016.3 |
| 20260508013143 | 14 | 92 | 4.8 | 4.8 | 0.00 | 3.17 | 3.17 | 99 | 1016.2 |
| 20260508012641 | 14 | 180 | 1.6 | 1.6 | 0.00 | 3.17 | 3.17 | 99 | 1016.3 |
| 20260508012138 | 14 | 161 | 0.0 | 1.6 | 0.00 | 3.17 | 3.17 | 99 | 1016.1 |
| 20260508011636 | 15 | 165 | 1.6 | 3.2 | 0.00 | 3.17 | 3.17 | 99 | 1016.0 |
| 20260508011133 | 15 | 77 | 1.6 | 1.6 | 0.00 | 3.17 | 3.17 | 99 | 1015.9 |
| 20260508010630 | 15 | 150 | 0.0 | 0.0 | 0.00 | 3.17 | 3.17 | 99 | 1016.1 |
| 20260508010128 | 15 | 173 | 0.0 | 0.0 | 0.00 | 3.17 | 3.17 | 99 | 1015.9 |
| 20260508005625 | 15 | 175 | 0.0 | 1.6 | 0.00 | 3.17 | 3.17 | 99 | 1015.8 |
| 20260508005121 | 15 | 184 | 1.6 | 1.6 | 0.00 | 3.17 | 3.17 | 99 | 1015.8 |
| 20260508004616 | 15 | 186 | 0.0 | 1.6 | 0.00 | 3.17 | 3.17 | 99 | 1015.5 |
| 20260508004114 | 15 | 73 | 0.0 | 3.2 | 0.00 | 3.17 | 3.17 | 99 | 1015.2 |
| 20260508003610 | 15 | 101 | 0.0 | 1.6 | 0.00 | 3.17 | 3.17 | 99 | 1014.9 |
| 20260508003108 | 15 | 24 | 3.2 | 4.8 | 0.00 | 3.17 | 3.17 | 99 | 1015.2 |
| 20260508002604 | 15 | 143 | 0.0 | 0.0 | 0.00 | 3.17 | 3.17 | 99 | 1015.0 |
| 20260508002102 | 15 | 163 | 0.0 | 0.0 | 0.00 | 3.17 | 3.17 | 99 | 1015.3 |
| 20260508001557 | 15 | 151 | 1.6 | 3.2 | 0.00 | 3.17 | 3.17 | 99 | 1014.8 |
| 20260508001053 | 15 | 166 | 0.0 | 1.6 | 0.00 | 3.17 | 3.17 | 99 | 1014.7 |
| 20260508000549 | 15 | 134 | 1.6 | 4.8 | 0.00 | 3.17 | 3.17 | 99 | 1014.5 |
| 20260508000047 | 15 | 32 | 3.2 | 4.8 | 0.00 | 3.17 | 3.17 | 99 | 1014.4 |
| 20260507235543 | 15 | 218 | 3.2 | 3.2 | 0.00 | 3.17 | 3.17 | 99 | 1014.4 |
| 20260507235041 | 15 | 44 | 1.6 | 3.2 | 0.00 | 3.17 | 3.17 | 99 | 1014.3 |
| 20260507234537 | 15 | 65 | 1.6 | 4.8 | 0.00 | 3.17 | 3.17 | 99 | 1013.8 |
| 20260507234033 | 15 | 99 | 1.6 | 9.7 | 0.00 | 3.17 | 3.17 | 99 | 1013.8 |
| 20260507233530 | 15 | 55 | 4.8 | 11.3 | 0.00 | 3.17 | 3.17 | 99 | 1013.5 |
| 20260507233029 | 15 | 86 | 1.6 | 3.2 | 0.00 | 3.17 | 3.17 | 99 | 1013.7 |
| 20260507232525 | 15 | 56 | 1.6 | 3.2 | 0.00 | 3.17 | 3.17 | 99 | 1013.6 |
| 20260507232022 | 15 | 120 | 1.6 | 4.8 | 0.00 | 3.17 | 3.17 | 99 | 1013.8 |
| 20260507231519 | 15 | 109 | 3.2 | 3.2 | 0.00 | 3.17 | 3.17 | 99 | 1013.7 |
| 20260507231016 | 16 | 155 | 0.0 | 9.7 | 0.00 | 3.17 | 3.17 | 99 | 1013.6 |
| 20260507230513 | 16 | 164 | 1.6 | 4.8 | 0.00 | 3.17 | 3.17 | 99 | 1013.7 |
| 20260507230009 | 16 | 159 | 0.0 | 3.2 | 0.00 | 3.17 | 3.17 | 99 | 1013.4 |
| 20260507225504 | 16 | 61 | 4.8 | 8.0 | 0.18 | 3.17 | 3.17 | 99 | 1013.3 |
| 20260507225001 | 16 | 332 | 1.6 | 8.0 | 0.48 | 3.17 | 3.17 | 99 | 1013.1 |
| 20260507224456 | 16 | 64 | 11.3 | 16.1 | 1.19 | 3.15 | 3.15 | 99 | 1012.8 |
| 20260507223953 | 16 | 178 | 1.6 | 8.0 | 1.07 | 3.10 | 3.10 | 99 | 1012.9 |
| 20260507223449 | 17 | 356 | 9.7 | 12.9 | 0.18 | 2.95 | 2.95 | 99 | 1012.3 |
| 20260507222947 | 17 | 43 | 4.8 | 11.3 | 0.00 | 2.92 | 2.92 | 97 | 1012.8 |
| 20260507222443 | 17 | 103 | 1.6 | 8.0 | 0.00 | 2.92 | 2.92 | 97 | 1012.8 |
| 20260507221940 | 17 | 76 | 3.2 | 9.7 | 0.00 | 2.92 | 2.92 | 96 | 1012.6 |
| 20260507221437 | 17 | 334 | 6.4 | 11.3 | 0.00 | 2.92 | 2.92 | 96 | 1012.2 |
| 20260507220933 | 17 | 13 | 8.0 | 11.3 | 0.00 | 2.92 | 2.92 | 95 | 1012.5 |
| 20260507220431 | 17 | 85 | 4.8 | 14.5 | 0.00 | 2.92 | 2.92 | 95 | 1012.3 |
| 20260507215927 | 18 | 62 | 6.4 | 11.3 | 0.00 | 2.92 | 2.92 | 94 | 1012.3 |
| 20260507215424 | 18 | 345 | 6.4 | 14.5 | 0.00 | 2.92 | 2.92 | 93 | 1012.5 |
| 20260507214921 | 18 | 205 | 1.6 | 11.3 | 0.00 | 2.92 | 2.92 | 93 | 1012.4 |
| 20260507214419 | 18 | 17 | 4.8 | 20.9 | 0.00 | 2.92 | 2.92 | 91 | 1011.7 |
| 20260507213914 | 20 | 63 | 8.0 | 16.1 | 0.00 | 2.92 | 2.92 | 89 | 1011.6 |
| 20260507213411 | 21 | 326 | 9.7 | 16.1 | 0.00 | 2.92 | 2.92 | 85 | 1011.6 |
| 20260507212908 | 22 | 154 | 1.6 | 9.7 | 0.00 | 2.92 | 2.92 | 81 | 1011.1 |
| 20260507212404 | 25 | 107 | 3.2 | 9.7 | 0.00 | 2.92 | 2.92 | 75 | 1010.5 |
| 20260507211900 | 26 | 315 | 11.3 | 14.5 | 0.00 | 2.92 | 2.92 | 68 | 1010.5 |
| 20260507211357 | 26 | 259 | 1.6 | 3.2 | 0.00 | 2.92 | 2.92 | 68 | 1010.5 |
| 20260507210854 | 25 | 153 | 1.6 | 8.0 | 0.00 | 2.92 | 2.92 | 72 | 1010.6 |
| 20260507210351 | 25 | 307 | 3.2 | 11.3 | 0.00 | 2.92 | 2.92 | 73 | 1010.6 |
| 20260507205847 | 26 | 201 | 1.6 | 3.2 | 0.00 | 2.92 | 2.92 | 71 | 1010.1 |
| 20260507205344 | 26 | 214 | 1.6 | 8.0 | 0.00 | 2.92 | 2.92 | 69 | 1010.0 |
| 20260507204841 | 26 | 187 | 3.2 | 8.0 | 0.00 | 2.92 | 2.92 | 69 | 1010.2 |
| 20260507204337 | 26 | 261 | 1.6 | 11.3 | 0.00 | 2.92 | 2.92 | 71 | 1010.4 |
| 20260507203835 | 26 | 219 | 6.4 | 9.7 | 0.00 | 2.92 | 2.92 | 70 | 1010.5 |
| 20260507203333 | 26 | 208 | 6.4 | 8.0 | 0.00 | 2.92 | 2.92 | 69 | 1010.6 |
| 20260507202829 | 26 | 209 | 3.2 | 8.0 | 0.00 | 2.92 | 2.92 | 71 | 1010.8 |
| 20260507202325 | 26 | 196 | 1.6 | 4.8 | 0.00 | 2.92 | 2.92 | 66 | 1010.4 |
| 20260507201821 | 26 | 186 | 0.0 | 3.2 | 0.00 | 2.92 | 2.92 | 68 | 1010.6 |
| 20260507201317 | 26 | 306 | 4.8 | 8.0 | 0.00 | 2.92 | 2.92 | 69 | 1010.8 |
| 20260507200813 | 26 | 192 | 1.6 | 11.3 | 0.00 | 2.92 | 2.92 | 68 | 1010.8 |
| 20260507200309 | 26 | 310 | 4.8 | 12.9 | 0.00 | 2.92 | 2.92 | 68 | 1010.8 |
| 20260507195805 | 27 | 228 | 6.4 | 8.0 | 0.00 | 2.92 | 2.92 | 68 | 1010.7 |
| 20260507195305 | 26 | 192 | 4.8 | 11.3 | 0.00 | 2.92 | 2.92 | 69 | 1011.0 |
| 20260507194801 | 27 | 268 | 3.2 | 8.0 | 0.00 | 2.92 | 2.92 | 68 | 1011.1 |
| 20260507194256 | 26 | 182 | 3.2 | 3.2 | 0.00 | 2.92 | 2.92 | 68 | 1011.1 |
| 20260507193753 | 26 | 204 | 4.8 | 9.7 | 0.00 | 2.92 | 2.92 | 71 | 1011.1 |
| 20260507193250 | 26 | 31 | 1.6 | 9.7 | 0.00 | 2.92 | 2.92 | 75 | 1011.1 |
| 20260507192746 | 26 | 220 | 8.0 | 9.7 | 0.00 | 2.92 | 2.92 | 71 | 1011.3 |
| 20260507192243 | 26 | 227 | 4.8 | 8.0 | 0.00 | 2.92 | 2.92 | 74 | 1011.3 |
| 20260507191739 | 25 | 10 | 1.6 | 8.0 | 0.00 | 2.92 | 2.92 | 73 | 1011.5 |
| 20260507191236 | 26 | 272 | 8.0 | 9.7 | 0.00 | 2.92 | 2.92 | 73 | 1011.5 |
| 20260507190732 | 25 | 227 | 3.2 | 8.0 | 0.00 | 2.92 | 2.92 | 74 | 1011.5 |
| 20260507190231 | 25 | 159 | 1.6 | 3.2 | 0.00 | 2.92 | 2.92 | 74 | 1011.7 |
| 20260507185730 | 25 | 94 | 3.2 | 8.0 | 0.00 | 2.92 | 2.92 | 74 | 1011.8 |
| 20260507185226 | 25 | 300 | 4.8 | 8.0 | 0.00 | 2.92 | 2.92 | 76 | 1011.7 |
| 20260507184724 | 25 | 331 | 6.4 | 12.9 | 0.00 | 2.92 | 2.92 | 73 | 1011.8 |
| 20260507184222 | 23 | 310 | 4.8 | 8.0 | 0.00 | 2.92 | 2.92 | 77 | 1011.9 |
| 20260507183718 | 23 | 178 | 3.2 | 9.7 | 0.00 | 2.92 | 2.92 | 76 | 1011.9 |
| 20260507183215 | 23 | 94 | 4.8 | 9.7 | 0.00 | 2.92 | 2.92 | 80 | 1011.9 |
| 20260507182712 | 24 | 198 | 4.8 | 8.0 | 0.00 | 2.92 | 2.92 | 79 | 1011.7 |
| 20260507182207 | 23 | 254 | 6.4 | 11.3 | 0.00 | 2.92 | 2.92 | 80 | 1011.9 |
| 20260507181704 | 23 | 284 | 3.2 | 8.0 | 0.00 | 2.92 | 2.92 | 81 | 1011.9 |
| 20260507181201 | 23 | 321 | 3.2 | 4.8 | 0.00 | 2.92 | 2.92 | 82 | 1012.0 |
| 20260507180656 | 23 | 200 | 8.0 | 9.7 | 0.00 | 2.92 | 2.92 | 82 | 1011.9 |
| 20260507180154 | 23 | 252 | 6.4 | 8.0 | 0.00 | 2.92 | 2.92 | 83 | 1011.9 |
| 20260507175649 | 23 | 199 | 1.6 | 4.8 | 0.00 | 2.92 | 2.92 | 85 | 1012.2 |
| 20260507175147 | 23 | 270 | 3.2 | 8.0 | 0.00 | 2.92 | 2.92 | 88 | 1012.2 |
| 20260507174644 | 22 | 221 | 3.2 | 9.7 | 0.00 | 2.92 | 2.92 | 86 | 1012.3 |
| 20260507174142 | 22 | 161 | 3.2 | 4.8 | 0.00 | 2.92 | 2.92 | 87 | 1012.5 |
| 20260507173639 | 22 | 196 | 1.6 | 9.7 | 0.00 | 2.92 | 2.92 | 94 | 1012.7 |
| 20260507173136 | 21 | 195 | 1.6 | 3.2 | 0.00 | 2.92 | 2.92 | 93 | 1012.8 |
| 20260507172632 | 21 | 150 | 3.2 | 11.3 | 0.00 | 2.92 | 2.92 | 94 | 1013.0 |
| 20260507172130 | 21 | 133 | 1.6 | 4.8 | 0.00 | 2.92 | 2.92 | 98 | 1012.8 |
| 20260507171630 | 20 | 290 | 3.2 | 9.7 | 0.00 | 2.92 | 2.92 | 99 | 1012.9 |
| 20260507171127 | 20 | 108 | 1.6 | 1.6 | 0.00 | 2.92 | 2.92 | 99 | 1012.4 |
| 20260507170624 | 20 | 192 | 1.6 | 3.2 | 0.00 | 2.92 | 2.92 | 99 | 1012.6 |
| 20260507170121 | 20 | 154 | 0.0 | 1.6 | 0.00 | 2.92 | 2.92 | 99 | 1012.6 |
| 20260507165617 | 19 | 209 | 4.8 | 4.8 | 0.00 | 2.92 | 2.92 | 99 | 1012.8 |
| 20260507165113 | 19 | 262 | 3.2 | 8.0 | 0.00 | 2.92 | 2.92 | 99 | 1013.0 |
| 20260507164609 | 19 | 175 | 1.6 | 3.2 | 0.00 | 2.92 | 2.92 | 99 | 1013.0 |
| 20260507164106 | 19 | 206 | 3.2 | 4.8 | 0.00 | 2.92 | 2.92 | 99 | 1012.7 |
| 20260507163604 | 20 | 174 | 0.0 | 3.2 | 0.00 | 2.92 | 2.92 | 99 | 1012.7 |
| 20260507163102 | 19 | 200 | 3.2 | 4.8 | 0.00 | 2.92 | 2.92 | 99 | 1013.0 |
| 20260507162556 | 19 | 158 | 0.0 | 8.0 | 0.00 | 2.92 | 2.92 | 99 | 1013.0 |
| 20260507162053 | 19 | 261 | 1.6 | 4.8 | 0.00 | 2.92 | 2.92 | 99 | 1013.0 |
| 20260507161549 | 18 | 199 | 1.6 | 3.2 | 0.00 | 2.92 | 2.92 | 99 | 1013.2 |
| 20260507161046 | 19 | 295 | 1.6 | 3.2 | 0.00 | 2.92 | 2.92 | 99 | 1013.2 |
| 20260507160543 | 18 | 327 | 3.2 | 8.0 | 0.00 | 2.92 | 2.92 | 99 | 1013.4 |
| 20260507160039 | 19 | 247 | 4.8 | 4.8 | 0.00 | 2.92 | 2.92 | 99 | 1013.5 |
| 20260507155534 | 19 | 203 | 3.2 | 4.8 | 0.00 | 2.92 | 2.92 | 99 | 1013.4 |
| 20260507155032 | 19 | 163 | 3.2 | 4.8 | 0.00 | 2.92 | 2.92 | 99 | 1013.0 |
| 20260507154528 | 18 | 142 | 0.0 | 1.6 | 0.00 | 2.92 | 2.92 | 99 | 1012.9 |
| 20260507154026 | 19 | 10 | 4.8 | 8.0 | 0.13 | 2.92 | 2.92 | 99 | 1012.9 |
| 20260507153522 | 19 | 212 | 1.6 | 3.2 | 0.13 | 2.92 | 2.92 | 99 | 1012.7 |
| 20260507153018 | 20 | 240 | 3.2 | 3.2 | 0.00 | 2.90 | 2.90 | 99 | 1012.3 |
| 20260507152514 | 19 | 192 | 0.0 | 1.6 | 0.00 | 2.90 | 2.90 | 99 | 1012.0 |
| 20260507152011 | 19 | 66 | 0.0 | 1.6 | 0.00 | 2.90 | 2.90 | 99 | 1012.0 |
| 20260507151507 | 18 | 111 | 1.6 | 3.2 | 0.00 | 2.90 | 2.90 | 99 | 1012.0 |
| 20260507151004 | 19 | 76 | 1.6 | 3.2 | 0.00 | 2.90 | 2.90 | 99 | 1012.0 |
| 20260507150501 | 18 | 200 | 1.6 | 1.6 | 0.00 | 2.90 | 2.90 | 99 | 1012.3 |
| 20260507145957 | 18 | 164 | 0.0 | 3.2 | 0.00 | 2.90 | 2.90 | 99 | 1012.6 |